Old Crow Airport
CYOC : now visible

Aeroporto :











RITROVATECI SU...

 
LOGIN :

Iscrizione | Disclaimer

   EN    FR    IT 

 









Sommario :    VFR   VFR Marginale   IFR   IFR Intensivo   IFR Molto Intensivo
Visibilità : 
Base nubi : 
>= 8 km
>= 3000ft
5 / 8 km
1000 / 3000 ft
1500m / 5 km
500 / 1000 ft
800 / 1500m
200 / 500 ft
< 800m
< 200 ft
Simboli :   Temporali  Nebbia  Neve Forte  Precipitazioni Forti  Vento > 20 kt






- Altitudine del aeroporto : 824 ft
- Codice IATA : YOC


CYOC - Old Crow

ULTIMO METAR :
  • 271500Z 04002KT 35SM FEW025 SCT080 BKN200 07/03 A3016 RMK SC2AC2CI2 SLP226

METARs OBSOLETI :
  • 271400Z 00000KT 35SM FEW025 SCT100 SCT200 06/02 A3015 RMK SC2AC1CI1 SLP221
  • 271300Z 00000KT 35SM FEW025 FEW100 SCT200 03/01 A3014 RMK SC1AC1CI2 CU ASOCTD SLP221

TAF TAF CYOC
Valido dal 27 a 15 ore il 28 a 01 ore UTC


271438Z 2715/2801 VRB03KT P6SM FEW030 SCT100
FM272100 VRB03KT P6SM -SHRA BKN060
BECMG 2721/2723 03005KT RMK NXT FCST BY 271900Z
FIR CZEG / America del Nord



MetMap, La meteo Aeronautica in un colpo d'occhio ! - Copyright ORBIFLY Dicembre 2007 - Disclaimer

ORBIFLY MET'MAP TEAM :

Programmazione e sviluppo : Alexandra Zaïnal
Concezione : Baudouin d'Aumeries
Aiuto per la programmazione : Marc-Olivier Méhu
Supporto tecnico e logistico : Manuel Goepfert
Aiuto per la traduzione : Arnaldo La Scala

Contatto : metmap@orbifly.com




FONTI E CREDITI :

   NOAA       Earth
Advisory